createdAt,value
2023-03-17T00:01:17.449Z,100002.94
2023-03-17T00:03:49.529Z,99997.09
2023-03-17T00:06:19.552Z,100000.13
2023-03-17T00:08:47.711Z,100002.31
2023-03-17T00:11:17.476Z,99997.19
2023-03-17T00:13:46.122Z,100001.69
2023-03-17T00:16:17.401Z,100003.38
2023-03-17T00:18:46.863Z,100010.88
2023-03-17T00:21:16.117Z,100009.91
2023-03-17T00:23:45.076Z,100008.94
2023-03-17T00:26:13.653Z,100013.69
2023-03-17T00:28:41.350Z,100012.19
2023-03-17T00:31:14.374Z,100011.34
2023-03-17T00:33:42.371Z,100007.16
2023-03-17T00:36:15.668Z,100014.66
2023-03-17T00:38:43.734Z,100006.09
2023-03-17T00:41:12.419Z,100004.16
2023-03-17T00:43:40.571Z,100012.94
2023-03-17T00:46:12.633Z,100007.72
2023-03-17T00:48:40.546Z,100016.63
2023-03-17T00:51:08.512Z,100010.03
2023-03-17T00:53:37.692Z,100011.06
2023-03-17T00:56:16.248Z,100014.38
2023-03-17T00:58:44.570Z,100001.00
2023-03-17T01:01:12.528Z,99992.69
2023-03-17T01:03:41.486Z,99996.34
2023-03-17T01:06:10.955Z,100000.69
2023-03-17T01:08:40.626Z,100004.91
2023-03-17T01:11:08.653Z,100003.72
2023-03-17T01:13:36.672Z,100004.53
2023-03-17T01:16:04.725Z,99998.66
2023-03-17T01:18:32.771Z,99990.44
2023-03-17T01:21:00.719Z,99988.81
2023-03-17T01:23:28.485Z,99977.47
2023-03-17T01:25:57.524Z,99972.38
2023-03-17T01:28:25.438Z,99970.25
2023-03-17T01:30:53.384Z,99970.88
2023-03-17T01:33:21.060Z,99969.47
2023-03-17T01:35:48.826Z,99960.84
2023-03-17T01:38:17.769Z,99965.44
2023-03-17T01:40:46.840Z,99974.16
2023-03-17T01:43:20.755Z,99969.00
2023-03-17T01:46:18.520Z,99972.25
2023-03-17T01:48:49.547Z,99969.13
2023-03-17T01:51:19.252Z,99972.66
2023-03-17T01:53:48.203Z,99974.00
2023-03-17T01:56:17.114Z,99968.00
2023-03-17T01:58:48.308Z,99970.31
2023-03-17T02:01:15.983Z,99979.75
2023-03-17T02:03:43.868Z,99971.19
2023-03-17T02:06:18.152Z,99957.56
2023-03-17T02:08:46.381Z,99955.66
2023-03-17T02:13:57.476Z,99934.59
2023-03-17T02:16:25.347Z,99938.19
2023-03-17T02:18:53.041Z,99929.88
2023-03-17T02:21:40.978Z,99928.75
2023-03-17T02:24:13.800Z,99928.41
2023-03-17T02:26:41.585Z,99926.56
2023-03-17T02:29:09.282Z,99920.75
2023-03-17T02:31:37.237Z,99910.06
2023-03-17T02:34:05.148Z,99925.50
2023-03-17T02:36:34.799Z,99911.66
2023-03-17T02:39:02.538Z,99906.97
2023-03-17T02:41:30.207Z,99896.25
2023-03-17T02:43:57.870Z,99908.69
2023-03-17T02:46:25.668Z,99900.19
2023-03-17T02:48:53.499Z,99901.81
2023-03-17T02:51:21.431Z,99906.22
2023-03-17T02:53:50.599Z,99909.06
2023-03-17T02:56:18.311Z,99911.97
2023-03-17T02:58:46.447Z,99895.53
2023-03-17T03:01:14.271Z,99902.81
2023-03-17T03:03:42.013Z,99910.00
2023-03-17T03:06:09.758Z,99906.00
2023-03-17T03:08:38.233Z,99910.81
2023-03-17T03:11:07.407Z,99924.16
2023-03-17T03:13:35.100Z,99918.44
2023-03-17T03:16:02.796Z,99909.84
2023-03-17T03:18:30.615Z,99918.28
2023-03-17T03:20:58.302Z,99919.69
2023-03-17T03:23:26.042Z,99933.47
2023-03-17T03:25:54.031Z,99919.25
2023-03-17T03:28:23.218Z,99920.09
2023-03-17T03:30:51.271Z,99914.75
2023-03-17T03:33:19.240Z,99939.22
2023-03-17T03:35:46.959Z,99946.94
2023-03-17T03:38:14.933Z,99932.09
2023-03-17T03:40:42.618Z,99929.28
2023-03-17T03:43:22.529Z,99939.63
2023-03-17T03:46:15.927Z,99944.06
2023-03-17T03:48:43.667Z,99924.16
2023-03-17T03:51:11.324Z,99918.41
2023-03-17T03:53:38.966Z,99931.00
2023-03-17T03:56:17.300Z,99915.59
2023-03-17T03:58:44.948Z,99904.88
2023-03-17T04:01:14.544Z,99919.09
2023-03-17T04:03:42.524Z,99911.34
2023-03-17T04:06:11.321Z,99909.84
2023-03-17T04:08:38.995Z,99913.75
2023-03-17T04:11:06.629Z,99915.97
2023-03-17T04:13:34.280Z,99911.31
2023-03-17T04:16:02.371Z,99902.63
2023-03-17T04:18:32.113Z,99901.31
2023-03-17T04:21:00.313Z,99900.72
2023-03-17T04:23:29.140Z,99898.69
2023-03-17T04:25:56.817Z,99888.25
2023-03-17T04:28:24.739Z,99889.28
2023-03-17T04:30:52.444Z,99882.31
2023-03-17T04:33:20.398Z,99879.06
2023-03-17T04:35:49.537Z,99890.19
2023-03-17T04:38:17.469Z,99901.19
2023-03-17T04:40:45.412Z,99890.66
2023-03-17T04:43:13.062Z,99886.22
2023-03-17T04:45:41.144Z,99893.22
2023-03-17T04:48:08.801Z,99896.28
2023-03-17T04:50:36.453Z,99899.88
2023-03-17T04:53:05.589Z,99879.38
2023-03-17T04:55:33.523Z,99871.72
2023-03-17T04:58:01.672Z,99886.66
2023-03-17T05:00:29.780Z,99885.00
2023-03-17T05:02:57.590Z,99864.22
2023-03-17T05:05:25.382Z,99856.31
2023-03-17T05:07:53.149Z,99869.25
2023-03-17T05:10:22.236Z,99870.75
2023-03-17T05:12:49.985Z,99880.03
2023-03-17T05:15:17.920Z,99876.25
2023-03-17T05:17:45.769Z,99883.59
2023-03-17T05:20:14.364Z,99880.25
2023-03-17T05:22:42.103Z,99881.47
2023-03-17T05:25:10.507Z,99886.75
2023-03-17T05:27:39.574Z,99888.25
2023-03-17T05:30:08.400Z,99894.56
2023-03-17T05:32:36.613Z,99885.38
2023-03-17T05:35:06.525Z,99882.91
2023-03-17T05:37:34.384Z,99875.13
2023-03-17T05:40:03.123Z,99877.31
2023-03-17T05:42:30.906Z,99872.22
2023-03-17T05:45:00.324Z,99879.53
2023-03-17T05:47:28.057Z,99886.50
2023-03-17T05:49:56.124Z,99882.59
2023-03-17T05:52:23.866Z,99877.63
2023-03-17T05:54:52.628Z,99876.94
2023-03-17T05:57:20.365Z,99875.28
2023-03-17T05:59:48.467Z,99877.41
2023-03-17T06:02:17.823Z,99876.50
2023-03-17T06:04:45.743Z,99867.72
2023-03-17T06:07:13.700Z,99878.53
2023-03-17T06:09:41.750Z,99881.31
2023-03-17T06:12:10.581Z,99873.09
2023-03-17T06:14:38.266Z,99877.25
2023-03-17T06:17:06.529Z,99882.22
2023-03-17T06:19:35.879Z,99876.75
2023-03-17T06:22:03.620Z,99872.84
2023-03-17T06:24:31.361Z,99870.41
2023-03-17T06:26:59.108Z,99866.50
2023-03-17T06:29:27.480Z,99865.63
2023-03-17T06:31:56.057Z,99874.81
2023-03-17T06:34:25.331Z,99877.22
2023-03-17T06:36:54.530Z,99866.06
2023-03-17T06:39:22.335Z,99876.56
2023-03-17T06:41:51.188Z,99870.75
2023-03-17T06:44:18.976Z,99857.19
2023-03-17T06:46:46.813Z,99872.88
2023-03-17T06:49:14.641Z,99858.50
2023-03-17T06:51:42.610Z,99852.63
2023-03-17T06:54:12.336Z,99850.19
2023-03-17T06:56:40.032Z,99855.53
2023-03-17T06:59:07.767Z,99879.31
2023-03-17T07:01:35.490Z,99887.66
2023-03-17T07:04:17.438Z,99877.22
2023-03-17T07:06:46.349Z,99866.50
2023-03-17T07:09:17.128Z,99867.97
2023-03-17T07:11:44.813Z,99862.41
2023-03-17T07:14:12.513Z,99855.91
2023-03-17T07:16:42.048Z,99883.41
2023-03-17T07:19:09.884Z,99889.75
2023-03-17T07:21:37.519Z,99889.34
2023-03-17T07:24:05.476Z,99873.78
2023-03-17T07:26:34.753Z,99869.66
2023-03-17T07:29:02.490Z,99876.59
2023-03-17T07:31:30.225Z,99857.81
2023-03-17T07:33:58.578Z,99865.53
2023-03-17T07:36:26.261Z,99859.91
2023-03-17T07:38:53.970Z,99875.19
2023-03-17T07:41:22.011Z,99874.41
2023-03-17T07:43:52.007Z,99871.41
2023-03-17T07:46:20.094Z,99865.56
2023-03-17T07:48:48.300Z,99851.81
2023-03-17T07:51:17.277Z,99859.13
2023-03-17T07:53:46.030Z,99863.44
2023-03-17T07:56:14.334Z,99857.19
2023-03-17T07:58:42.030Z,99851.09
2023-03-17T08:01:11.345Z,99871.06
2023-03-17T08:03:41.265Z,99870.78
2023-03-17T08:06:09.536Z,99879.19
2023-03-17T08:08:37.187Z,99867.47
2023-03-17T08:11:05.992Z,99860.50
2023-03-17T08:13:34.002Z,99851.34
2023-03-17T08:16:02.032Z,99848.13
2023-03-17T08:18:31.350Z,99848.09
2023-03-17T08:20:59.277Z,99848.69
2023-03-17T08:23:27.545Z,99840.59
2023-03-17T08:26:14.257Z,99844.91
2023-03-17T08:28:42.037Z,99847.63
2023-03-17T08:31:13.027Z,99842.72
2023-03-17T08:36:26.369Z,99839.22
2023-03-17T08:38:54.342Z,99834.59
2023-03-17T08:41:24.442Z,99830.16
2023-03-17T08:43:52.949Z,99827.31
2023-03-17T08:46:22.544Z,99829.66
2023-03-17T08:48:54.086Z,99832.97
2023-03-17T08:51:24.470Z,99831.72
2023-03-17T08:53:52.634Z,99832.44
2023-03-17T08:56:20.905Z,99844.56
2023-03-17T08:58:49.314Z,99845.72
2023-03-17T09:01:24.610Z,99849.47
2023-03-17T09:03:54.962Z,99856.28
2023-03-17T09:06:23.495Z,99857.19
2023-03-17T09:08:55.395Z,99859.94
2023-03-17T09:11:25.986Z,99854.81
2023-03-17T09:13:54.409Z,99844.34
2023-03-17T09:16:23.361Z,99844.38
2023-03-17T09:19:01.492Z,99837.28
2023-03-17T09:21:29.207Z,99850.63
2023-03-17T09:23:57.018Z,99861.75
2023-03-17T09:29:47.282Z,99856.53
2023-03-17T09:32:15.580Z,99841.50
2023-03-17T09:34:46.268Z,99846.34
2023-03-17T09:37:14.807Z,99847.09
2023-03-17T09:39:42.515Z,99853.38
2023-03-17T09:42:20.477Z,99850.13
2023-03-17T09:44:59.142Z,99862.84
2023-03-17T09:47:41.570Z,99854.22
2023-03-17T09:50:15.021Z,99857.88
2023-03-17T09:52:43.223Z,99847.56
2023-03-17T09:57:59.212Z,99849.59
2023-03-17T10:00:29.403Z,99843.34
2023-03-17T10:02:57.889Z,99841.00
2023-03-17T10:05:30.088Z,99854.13
2023-03-17T10:08:06.372Z,99846.78
2023-03-17T10:10:43.867Z,99843.03
2023-03-17T10:13:19.370Z,99840.66
2023-03-17T10:15:51.587Z,99833.94
2023-03-17T10:18:19.768Z,99832.75
2023-03-17T10:20:52.058Z,99829.41
2023-03-17T10:23:22.229Z,99836.38
2023-03-17T10:25:49.960Z,99825.69
2023-03-17T10:28:26.195Z,99838.53
2023-03-17T10:31:17.577Z,99824.22
2023-03-17T10:33:49.713Z,99832.84
2023-03-17T10:36:19.311Z,99835.75
2023-03-17T10:38:54.169Z,99829.03
2023-03-17T10:41:22.413Z,99818.91
2023-03-17T10:43:51.874Z,99823.63
2023-03-17T10:46:32.600Z,99827.06
2023-03-17T10:49:05.627Z,99833.47
2023-03-17T10:51:37.190Z,99820.22
2023-03-17T10:54:18.759Z,99826.78
2023-03-17T10:56:48.150Z,99822.63
2023-03-17T10:59:21.590Z,99818.88
2023-03-17T11:01:54.020Z,99823.97
2023-03-17T11:04:28.483Z,99822.53
2023-03-17T11:06:59.156Z,99824.75
2023-03-17T11:09:29.544Z,99823.94
2023-03-17T11:12:05.595Z,99827.91
2023-03-17T11:14:34.267Z,99817.19
2023-03-17T11:17:03.833Z,99825.22
2023-03-17T11:19:41.116Z,99808.38
2023-03-17T11:22:13.575Z,99816.22
2023-03-17T11:24:47.761Z,99820.41
2023-03-17T11:27:24.802Z,99806.28
2023-03-17T11:32:30.295Z,99815.84
2023-03-17T11:35:16.709Z,99809.13
2023-03-17T11:38:00.903Z,99795.94
2023-03-17T11:40:33.300Z,99811.84
2023-03-17T11:43:16.188Z,99819.03
2023-03-17T11:45:47.124Z,99811.63
2023-03-17T11:48:25.162Z,99807.81
2023-03-17T11:50:57.925Z,99798.31
2023-03-17T11:53:41.642Z,99808.38
2023-03-17T11:56:14.455Z,99815.41
2023-03-17T11:58:44.107Z,99816.50
2023-03-17T12:01:16.272Z,99814.44
2023-03-17T12:03:47.197Z,99803.28
2023-03-17T12:06:18.003Z,99809.72
2023-03-17T12:09:07.842Z,99809.41
2023-03-17T12:11:38.368Z,99809.44
2023-03-17T12:14:08.721Z,99805.38
2023-03-17T12:16:40.098Z,99816.19
2023-03-17T12:19:12.589Z,99803.50
2023-03-17T12:21:43.482Z,99817.75
2023-03-17T12:24:17.273Z,99800.22
2023-03-17T12:26:50.753Z,99798.63
2023-03-17T12:29:25.437Z,99795.72
2023-03-17T12:31:57.332Z,99784.44
2023-03-17T12:34:28.423Z,99790.75
2023-03-17T12:36:56.592Z,99789.91
2023-03-17T12:39:29.105Z,99783.00
2023-03-17T12:42:15.816Z,99786.16
2023-03-17T12:45:00.841Z,99783.50
2023-03-17T12:50:49.200Z,99773.97
2023-03-17T12:53:26.618Z,99764.66
2023-03-17T12:55:58.552Z,99771.41
2023-03-17T12:58:36.528Z,99760.31
2023-03-17T13:01:17.412Z,99761.59
2023-03-17T13:03:59.815Z,99761.44
2023-03-17T13:06:30.890Z,99758.88
2023-03-17T13:09:31.821Z,99752.41
2023-03-17T13:11:59.967Z,99751.97
2023-03-17T13:14:29.375Z,99753.38
2023-03-17T13:17:05.932Z,99760.44
2023-03-17T13:19:35.111Z,99757.06
2023-03-17T13:22:25.198Z,99740.75
2023-03-17T13:24:54.760Z,99739.66
2023-03-17T13:27:42.460Z,99737.91
2023-03-17T13:30:47.049Z,99728.31
2023-03-17T13:33:24.400Z,99730.69
2023-03-17T13:36:05.903Z,99728.56
2023-03-17T13:39:14.995Z,99726.41
2023-03-17T13:42:18.801Z,99719.22
2023-03-17T13:45:00.672Z,99723.53
2023-03-17T13:47:35.108Z,99712.00
2023-03-17T13:50:09.413Z,99708.47
2023-03-17T13:52:42.507Z,99706.66
2023-03-17T13:55:32.050Z,99704.56
2023-03-17T13:58:27.486Z,99707.81
2023-03-17T14:01:02.663Z,99713.13
2023-03-17T14:03:35.284Z,99710.84
2023-03-17T14:06:08.139Z,99709.47
2023-03-17T14:08:36.986Z,99696.84
2023-03-17T14:11:08.986Z,99711.50
2023-03-17T14:13:44.742Z,99698.88
2023-03-17T14:16:17.323Z,99700.50
2023-03-17T14:18:49.696Z,99689.66
2023-03-17T14:21:24.089Z,99700.09
2023-03-17T14:23:55.775Z,99705.97
2023-03-17T14:26:24.810Z,99702.44
2023-03-17T14:28:54.449Z,99701.91
2023-03-17T14:31:24.067Z,99709.09
2023-03-17T14:34:02.042Z,99695.97
2023-03-17T14:36:34.235Z,99702.75
2023-03-17T14:39:23.291Z,99701.84
2023-03-17T14:42:02.784Z,99692.66
2023-03-17T14:44:38.866Z,99706.66
2023-03-17T14:47:12.829Z,99700.75
2023-03-17T14:49:40.779Z,99698.44
2023-03-17T14:54:44.020Z,99703.38
2023-03-17T14:57:16.179Z,99710.69
2023-03-17T14:59:57.183Z,99699.25
2023-03-17T15:02:30.066Z,99705.41
2023-03-17T15:05:00.408Z,99700.84
2023-03-17T15:10:24.700Z,99698.81
2023-03-17T15:13:01.325Z,99685.75
2023-03-17T15:15:33.182Z,99689.94
2023-03-17T15:18:04.721Z,99683.91
2023-03-17T15:20:35.427Z,99678.63
2023-03-17T15:23:06.273Z,99673.84
2023-03-17T15:25:36.558Z,99660.97
2023-03-17T15:28:11.676Z,99665.94
2023-03-17T15:30:47.650Z,99672.13
2023-03-17T15:33:21.693Z,99682.97
2023-03-17T15:35:49.956Z,99681.56
2023-03-17T15:38:17.767Z,99683.03
2023-03-17T15:40:45.742Z,99680.31
2023-03-17T15:43:15.797Z,99686.22
2023-03-17T15:45:45.498Z,99696.59
2023-03-17T15:48:17.404Z,99689.00
2023-03-17T15:50:46.576Z,99684.13
2023-03-17T15:53:15.074Z,99690.50
2023-03-17T15:55:42.756Z,99696.75
2023-03-17T15:58:11.098Z,99692.47
2023-03-17T16:00:38.836Z,99694.84
2023-03-17T16:03:14.748Z,99700.06
2023-03-17T16:05:43.296Z,99690.06
2023-03-17T16:08:14.193Z,99706.97
2023-03-17T16:10:42.312Z,99695.75
2023-03-17T16:13:10.030Z,99702.25
2023-03-17T16:15:39.639Z,99687.66
2023-03-17T16:18:13.544Z,99682.97
2023-03-17T16:20:43.045Z,99692.19
2023-03-17T16:23:15.851Z,99694.88
2023-03-17T16:28:30.076Z,99703.06
2023-03-17T16:31:00.321Z,99698.38
2023-03-17T16:33:32.340Z,99706.28
2023-03-17T16:36:01.282Z,99689.28
2023-03-17T16:38:31.369Z,99709.50
2023-03-17T16:41:01.416Z,99698.31
2023-03-17T16:43:31.538Z,99710.75
2023-03-17T16:46:00.843Z,99713.88
2023-03-17T16:48:31.069Z,99704.31
2023-03-17T16:50:59.142Z,99705.91
2023-03-17T16:53:27.049Z,99713.75
2023-03-17T16:55:55.500Z,99726.88
2023-03-17T16:58:24.973Z,99718.06
2023-03-17T17:00:54.223Z,99730.22
2023-03-17T17:03:21.939Z,99722.84
2023-03-17T17:05:51.217Z,99719.94
2023-03-17T17:08:18.902Z,99716.50
2023-03-17T17:10:46.594Z,99722.16
2023-03-17T17:13:14.728Z,99725.59
2023-03-17T17:15:43.478Z,99727.94
2023-03-17T17:18:14.713Z,99721.47
2023-03-17T17:20:42.955Z,99706.06
2023-03-17T17:23:16.604Z,99715.50
2023-03-17T17:25:44.411Z,99727.84
2023-03-17T17:28:13.543Z,99728.84
2023-03-17T17:30:45.061Z,99714.00
2023-03-17T17:33:13.333Z,99720.66
2023-03-17T17:35:41.721Z,99721.25
2023-03-17T17:38:17.702Z,99718.25
2023-03-17T17:40:45.386Z,99716.81
2023-03-17T17:43:13.299Z,99723.81
2023-03-17T17:45:41.308Z,99709.34
2023-03-17T17:48:11.030Z,99714.38
2023-03-17T17:50:38.709Z,99706.03
2023-03-17T17:53:08.746Z,99713.72
2023-03-17T17:55:38.195Z,99722.97
2023-03-17T17:58:06.089Z,99740.38
2023-03-17T18:00:34.060Z,99745.66
2023-03-17T18:03:02.080Z,99748.47
2023-03-17T18:05:30.047Z,99746.53
2023-03-17T18:07:58.193Z,99741.50
2023-03-17T18:10:26.153Z,99754.63
2023-03-17T18:12:55.607Z,99750.78
2023-03-17T18:15:23.603Z,99762.22
2023-03-17T18:17:51.784Z,99759.00
2023-03-17T18:20:21.666Z,99751.31
2023-03-17T18:22:50.311Z,99756.69
2023-03-17T18:25:19.393Z,99746.78
2023-03-17T18:27:48.287Z,99757.75
2023-03-17T18:30:23.414Z,99751.22
2023-03-17T18:32:52.131Z,99750.34
2023-03-17T18:35:22.983Z,99750.50
2023-03-17T18:37:51.883Z,99748.78
2023-03-17T18:40:20.072Z,99753.69
2023-03-17T18:42:48.146Z,99763.19
2023-03-17T18:45:17.283Z,99769.66
2023-03-17T18:47:44.991Z,99762.13
2023-03-17T18:50:14.529Z,99783.06
2023-03-17T18:52:43.789Z,99784.41
2023-03-17T18:55:12.414Z,99775.16
2023-03-17T18:57:42.586Z,99767.25
2023-03-17T19:00:13.947Z,99760.44
2023-03-17T19:02:43.280Z,99775.81
2023-03-17T19:05:11.697Z,99772.56
2023-03-17T19:07:40.665Z,99768.69
2023-03-17T19:10:09.771Z,99757.00
2023-03-17T19:12:37.937Z,99781.00
2023-03-17T19:15:07.334Z,99777.06
2023-03-17T19:17:36.505Z,99774.06
2023-03-17T19:20:07.059Z,99776.44
2023-03-17T19:22:35.311Z,99757.53
2023-03-17T19:25:04.346Z,99767.91
2023-03-17T19:27:32.325Z,99766.22
2023-03-17T19:30:00.067Z,99756.75
2023-03-17T19:32:28.034Z,99754.44
2023-03-17T19:34:56.205Z,99732.28
2023-03-17T19:37:26.093Z,99750.03
2023-03-17T19:39:53.948Z,99766.44
2023-03-17T19:42:22.143Z,99752.47
2023-03-17T19:44:49.828Z,99753.41
2023-03-17T19:47:17.828Z,99753.84
2023-03-17T19:49:45.936Z,99765.47
2023-03-17T19:52:13.887Z,99762.69
2023-03-17T19:54:45.824Z,99765.28
2023-03-17T19:57:13.669Z,99778.47
2023-03-17T19:59:41.682Z,99776.53
2023-03-17T20:04:46.209Z,99765.47
2023-03-17T20:07:13.968Z,99775.97
2023-03-17T20:09:44.764Z,99775.47
2023-03-17T20:12:12.557Z,99783.75
2023-03-17T20:14:40.302Z,99776.22
2023-03-17T20:17:08.213Z,99775.78
2023-03-17T20:19:39.167Z,99778.16
2023-03-17T20:22:07.162Z,99778.50
2023-03-17T20:24:35.559Z,99788.75
2023-03-17T20:27:05.234Z,99793.16
2023-03-17T20:29:33.128Z,99778.56
2023-03-17T20:32:02.107Z,99788.19
2023-03-17T20:34:31.770Z,99774.66
2023-03-17T20:36:59.692Z,99783.56
2023-03-17T20:39:27.380Z,99791.34
2023-03-17T20:41:55.352Z,99782.84
2023-03-17T20:44:24.803Z,99790.78
2023-03-17T20:46:53.104Z,99783.34
2023-03-17T20:49:21.002Z,99793.78
2023-03-17T20:51:49.494Z,99796.91
2023-03-17T20:54:17.934Z,99796.63
2023-03-17T20:56:46.136Z,99806.94
2023-03-17T20:59:13.800Z,99808.56
2023-03-17T21:01:43.831Z,99804.88
2023-03-17T21:04:15.660Z,99813.53
2023-03-17T21:06:43.556Z,99813.31
2023-03-17T21:09:11.670Z,99802.25
2023-03-17T21:11:39.478Z,99804.97
2023-03-17T21:14:08.034Z,99813.72
2023-03-17T21:16:37.314Z,99808.88
2023-03-17T21:19:09.522Z,99809.63
2023-03-17T21:21:37.641Z,99810.59
2023-03-17T21:24:08.383Z,99812.19
2023-03-17T21:26:36.260Z,99809.66
2023-03-17T21:29:04.101Z,99815.47
2023-03-17T21:31:31.805Z,99809.72
2023-03-17T21:33:59.651Z,99820.25
2023-03-17T21:36:28.748Z,99802.53
2023-03-17T21:38:56.454Z,99804.34
2023-03-17T21:41:30.958Z,99807.19
2023-03-17T21:43:59.166Z,99804.84
2023-03-17T21:46:27.039Z,99809.38
2023-03-17T21:48:55.906Z,99804.25
2023-03-17T21:51:24.408Z,99813.53
2023-03-17T21:53:54.103Z,99805.44
2023-03-17T21:56:22.324Z,99806.00
2023-03-17T21:58:50.244Z,99811.28
2023-03-17T22:01:31.553Z,99814.84
2023-03-17T22:03:59.671Z,99820.94
2023-03-17T22:06:29.433Z,99812.88
2023-03-17T22:08:58.715Z,99806.38
2023-03-17T22:11:26.684Z,99813.31
2023-03-17T22:13:54.588Z,99817.03
2023-03-17T22:16:22.343Z,99824.28
2023-03-17T22:18:50.064Z,99819.91
2023-03-17T22:21:18.023Z,99822.34
2023-03-17T22:23:46.263Z,99823.75
2023-03-17T22:26:17.976Z,99829.94
2023-03-17T22:28:47.105Z,99826.50
2023-03-17T22:31:16.565Z,99822.34
2023-03-17T22:33:44.768Z,99825.38
2023-03-17T22:36:13.133Z,99828.59
2023-03-17T22:38:41.417Z,99824.31
2023-03-17T22:41:10.967Z,99825.41
2023-03-17T22:43:40.314Z,99826.22
2023-03-17T22:46:08.601Z,99823.47
2023-03-17T22:48:36.969Z,99824.03
2023-03-17T22:51:07.270Z,99830.00
2023-03-17T22:53:35.727Z,99832.47
2023-03-17T22:56:04.139Z,99826.47
2023-03-17T22:58:31.898Z,99836.53
2023-03-17T23:01:01.257Z,99830.22
2023-03-17T23:03:29.881Z,99832.06
2023-03-17T23:05:59.890Z,99827.06
2023-03-17T23:08:29.346Z,99833.56
2023-03-17T23:10:57.610Z,99829.75
2023-03-17T23:13:25.314Z,99830.31
2023-03-17T23:15:53.184Z,99840.56
2023-03-17T23:18:22.778Z,99833.81
2023-03-17T23:20:51.263Z,99829.44
2023-03-17T23:23:19.935Z,99829.75
2023-03-17T23:25:47.774Z,99838.41
2023-03-17T23:28:16.031Z,99844.34
2023-03-17T23:30:43.878Z,99841.66
2023-03-17T23:33:11.772Z,99836.75
2023-03-17T23:35:41.044Z,99852.75
2023-03-17T23:38:09.829Z,99850.28
2023-03-17T23:40:37.523Z,99853.81
2023-03-17T23:43:05.798Z,99859.50
2023-03-17T23:45:34.318Z,99858.69
2023-03-17T23:48:02.910Z,99846.19
2023-03-17T23:50:32.005Z,99851.69
2023-03-17T23:53:01.872Z,99852.78
2023-03-17T23:55:29.762Z,99857.88
2023-03-17T23:57:57.619Z,99848.72
